Provincetown, MA

4:47 PM EST on November 17, 2017 (GMT -0500)
Provincetown Municipal

Weather History for KPVC - February, 2013

Change the Weather History Date:

Wednesday, February 27, 2013

  Actual Average Record
Temperature  
Mean Temperature 42 °F -  
Max Temperature 44 °F 38 °F 53 °F (1957)
Min Temperature 39 °F 27 °F 6 °F (2003)
Degree Days  
Heating Degree Days 24    
Moisture  
Dew Point 40 °F    
Average Humidity 91    
Maximum Humidity 100    
Minimum Humidity 76    
Precipitation  
Precipitation 0.00 in - - ()
Sea Level Pressure  
Sea Level Pressure 29.84 in    
Wind  
Wind Speed 18 mph (ESE)    
Max Wind Speed 31 mph    
Max Gust Speed 47 mph    
Visibility 6 miles    
Events      
Averages and records for this station are not official NWS values.
T = Trace of Precipitation, MM = Missing Value Source: NWS Daily Summary

Daily Weather History Graph

Daily Weather History Graph

Search for Another Location

Airport or City:

Trip Planner

Search our weather history database for the weather conditions in past years. The results will help you decide how hot, cold, wet, or windy it might be!

Date:

Astronomy

Feb. 27, 2013 Rise Set
Actual Time 6:18 AM EST 5:28 PM EST
Civil Twilight 5:50 AM EST 5:56 PM EST
Nautical Twilight 5:18 AM EST 6:29 PM EST
Astronomical Twilight 4:46 AM EST 7:01 PM EST
Moon 7:50 PM EST (2/27) 6:49 AM EST (2/27)
Length of Visible Light 12h 06m
Length of Day
11h 10m
Waning Gibbous, 96% of the Moon is Illuminated
Feb 27
Waning Gibbous
Mar 4
Last Quarter
Mar 11
New
Mar 19
First Quarter
Mar 27
Full

Hourly Weather History & Observations

Time (EST) Temp. Windchill Dew Point Humidity Pressure Visibility Wind Dir Wind Speed Gust Speed Precip Events Conditions
12:15 AM 39.2 °F 30.8 °F 35.6 °F 87% 30.17 in 10.0 mi East 15.0 mph - N/A   Overcast
12:35 AM 39.2 °F 31.2 °F 33.8 °F 81% 30.16 in 10.0 mi East 13.8 mph 20.7 mph N/A   Overcast
12:55 AM 39.2 °F 30.8 °F 33.8 °F 81% 30.15 in 10.0 mi East 15.0 mph 23.0 mph N/A   Overcast
1:15 AM 41.0 °F 33.9 °F 33.8 °F 76% 30.13 in 10.0 mi East 12.7 mph 20.7 mph N/A   Overcast
1:35 AM 41.0 °F 33.1 °F 35.6 °F 81% 30.12 in 10.0 mi East 15.0 mph 24.2 mph N/A   Overcast
1:55 AM 41.0 °F 33.1 °F 35.6 °F 81% 30.10 in 10.0 mi East 15.0 mph 23.0 mph N/A   Overcast
2:15 AM 42.8 °F 35.8 °F 37.4 °F 81% 30.09 in 10.0 mi East 13.8 mph 23.0 mph N/A   Overcast
2:35 AM 42.8 °F 35.1 °F 37.4 °F 81% 30.07 in 10.0 mi East 16.1 mph 21.9 mph N/A   Overcast
2:55 AM 42.8 °F 35.4 °F 39.2 °F 87% 30.07 in 10.0 mi ESE 15.0 mph 20.7 mph N/A   Overcast
3:15 AM 42.8 °F 35.8 °F 39.2 °F 87% 30.06 in 10.0 mi East 13.8 mph 18.4 mph N/A   Overcast
3:35 AM 42.8 °F 36.2 °F 39.2 °F 87% 30.05 in 10.0 mi East 12.7 mph 24.2 mph N/A   Overcast
3:55 AM 42.8 °F 35.8 °F 39.2 °F 87% 30.06 in 10.0 mi East 13.8 mph 21.9 mph N/A   Overcast
4:35 AM 42.8 °F 36.2 °F 39.2 °F 87% 30.05 in 9.0 mi ESE 12.7 mph 17.3 mph N/A   Overcast
4:55 AM 42.8 °F 35.1 °F 39.2 °F 87% 30.05 in 6.0 mi East 16.1 mph 21.9 mph N/A   Overcast
5:15 AM 42.8 °F 35.4 °F 41.0 °F 93% 30.04 in 7.0 mi East 15.0 mph 19.6 mph N/A   Overcast
5:35 AM 42.8 °F 34.8 °F 39.2 °F 87% 30.02 in 7.0 mi East 17.3 mph 25.3 mph N/A   Overcast
5:55 AM 42.8 °F 35.1 °F 39.2 °F 87% 30.01 in 7.0 mi East 16.1 mph 23.0 mph N/A   Overcast
6:15 AM 42.8 °F 34.3 °F 41.0 °F 93% 30.00 in 8.0 mi ESE 19.6 mph 25.3 mph N/A   Overcast
6:35 AM 42.8 °F 34.8 °F 41.0 °F 93% 29.99 in 8.0 mi East 17.3 mph 29.9 mph N/A   Overcast
6:55 AM 42.8 °F 34.8 °F 41.0 °F 93% 29.97 in 5.0 mi ESE 17.3 mph 32.2 mph N/A   Overcast
7:15 AM 42.8 °F 33.5 °F 41.0 °F 93% 29.97 in 7.0 mi ESE 23.0 mph 29.9 mph N/A   Overcast
7:55 AM 42.8 °F 34.3 °F 41.0 °F 93% 29.95 in 6.0 mi East 19.6 mph 34.5 mph N/A   Overcast
8:15 AM 42.8 °F 33.3 °F 41.0 °F 93% 29.94 in 5.0 mi ESE 24.2 mph 36.8 mph N/A   Overcast
8:35 AM 42.8 °F 34.0 °F 41.0 °F 93% 29.93 in 5.0 mi ESE 20.7 mph 32.2 mph N/A   Overcast
8:55 AM 42.8 °F 34.0 °F 41.0 °F 93% 29.93 in 5.0 mi ESE 20.7 mph 29.9 mph N/A   Overcast
9:15 AM 42.8 °F 33.8 °F 42.8 °F 100% 29.92 in 5.0 mi ESE 21.9 mph 28.8 mph N/A   Overcast
9:35 AM 42.8 °F 34.3 °F 41.0 °F 93% 29.91 in 5.0 mi ESE 19.6 mph 28.8 mph N/A   Overcast
9:55 AM 42.8 °F 33.8 °F 41.0 °F 93% 29.90 in 5.0 mi ESE 21.9 mph 33.4 mph N/A   Overcast
10:15 AM 42.8 °F 34.8 °F 42.8 °F 100% 29.88 in 5.0 mi ESE 17.3 mph 33.4 mph N/A   Overcast
10:35 AM 42.8 °F 33.3 °F 41.0 °F 93% 29.87 in 4.0 mi ESE 24.2 mph 33.4 mph N/A   Overcast
10:55 AM 42.8 °F 32.9 °F 41.0 °F 93% 29.86 in 5.0 mi East 26.5 mph 36.8 mph N/A   Overcast
11:15 AM 42.8 °F 33.8 °F 39.2 °F 87% 29.85 in 5.0 mi ESE 21.9 mph 36.8 mph N/A   Overcast
11:35 AM 42.8 °F 33.5 °F 41.0 °F 93% 29.83 in 4.0 mi East 23.0 mph 38.0 mph N/A   Overcast
11:55 AM 42.8 °F 32.1 °F 41.0 °F 93% 29.81 in 4.0 mi East 31.1 mph 43.7 mph N/A   Overcast
12:15 PM 42.8 °F 33.1 °F 41.0 °F 93% 29.81 in 4.0 mi East 25.3 mph 35.7 mph N/A   Overcast
12:35 PM 42.8 °F 32.7 °F 39.2 °F 87% 29.78 in 3.0 mi East 27.6 mph 38.0 mph N/A   Overcast
12:55 PM 42.8 °F 33.5 °F 39.2 °F 87% 29.77 in 2.5 mi East 23.0 mph 47.2 mph N/A   Overcast
1:15 PM 42.8 °F 32.5 °F 39.2 °F 87% 29.77 in 2.5 mi East 28.8 mph 38.0 mph N/A   Overcast
1:35 PM 42.8 °F 32.3 °F 39.2 °F 87% 29.75 in 2.5 mi East 29.9 mph 44.9 mph N/A   Overcast
1:55 PM 42.8 °F 33.3 °F 39.2 °F 87% 29.73 in 3.0 mi East 24.2 mph 46.0 mph N/A   Overcast
2:15 PM 41.0 °F 30.0 °F 41.0 °F 100% 29.73 in 3.0 mi East 28.8 mph 38.0 mph N/A   Overcast
2:35 PM 41.0 °F 30.9 °F 39.2 °F 93% 29.72 in 2.0 mi East 24.2 mph 40.3 mph N/A   Overcast
2:55 PM 42.8 °F 32.9 °F 41.0 °F 93% 29.70 in 3.0 mi East 26.5 mph 38.0 mph N/A   Overcast
3:15 PM 42.8 °F 33.1 °F 41.0 °F 93% 29.70 in 5.0 mi East 25.3 mph 36.8 mph N/A   Overcast
3:35 PM 42.8 °F 33.5 °F 39.2 °F 87% 29.68 in 3.0 mi East 23.0 mph 38.0 mph N/A   Overcast
3:55 PM 42.8 °F 33.3 °F 41.0 °F 93% 29.67 in 5.0 mi East 24.2 mph 38.0 mph N/A   Overcast
4:15 PM 42.8 °F 32.3 °F 41.0 °F 93% 29.65 in 5.0 mi East 29.9 mph 35.7 mph N/A   Overcast
4:35 PM 42.8 °F 33.1 °F 41.0 °F 93% 29.64 in 7.0 mi East 25.3 mph 35.7 mph N/A   Overcast
5:15 PM 44.6 °F 36.1 °F 42.8 °F 93% 29.63 in 3.0 mi East 21.9 mph 35.7 mph N/A   Overcast
5:35 PM 44.6 °F 36.4 °F 42.8 °F 93% 29.63 in 5.0 mi ESE 20.7 mph 36.8 mph N/A   Overcast
5:55 PM 44.6 °F 36.1 °F 42.8 °F 93% 29.64 in 4.0 mi ESE 21.9 mph 34.5 mph N/A   Overcast
6:15 PM 44.6 °F 36.1 °F 42.8 °F 93% 29.63 in 7.0 mi East 21.9 mph 31.1 mph N/A   Overcast
6:35 PM 44.6 °F 36.9 °F 42.8 °F 93% 29.62 in 7.0 mi ESE 18.4 mph 28.8 mph N/A   Overcast
6:55 PM 44.6 °F 37.8 °F 42.8 °F 93% 29.61 in 5.0 mi East 15.0 mph 26.5 mph N/A   Overcast
7:15 PM 44.6 °F 37.8 °F 44.6 °F 100% 29.60 in 5.0 mi ESE 15.0 mph 26.5 mph N/A   Overcast
7:55 PM 44.6 °F 36.6 °F 44.6 °F 100% 29.57 in 9.0 mi ESE 19.6 mph 27.6 mph N/A   Overcast
8:15 PM 44.6 °F 38.1 °F 42.8 °F 93% 29.57 in 8.0 mi ESE 13.8 mph 19.6 mph N/A   Overcast
8:35 PM 44.6 °F 39.7 °F 44.6 °F 100% 29.57 in 7.0 mi SE 9.2 mph 16.1 mph N/A   Overcast
9:15 PM 44.6 °F 40.2 °F 44.6 °F 100% 29.56 in 2.0 mi SSE 8.1 mph - N/A   Overcast
9:35 PM 44.6 °F 38.8 °F 44.6 °F 100% 29.56 in 1.0 mi South 11.5 mph 16.1 mph N/A   Overcast
9:55 PM 42.8 °F 35.8 °F 42.8 °F 100% 29.56 in 0.8 mi SSW 13.8 mph 19.6 mph N/A   Overcast
10:35 PM 42.8 °F 35.4 °F 41.0 °F 93% 29.57 in 1.2 mi SSW 15.0 mph - N/A   Overcast
10:55 PM 42.8 °F 35.8 °F 41.0 °F 93% 29.56 in 3.0 mi SSW 13.8 mph - N/A   Overcast
11:35 PM 42.8 °F 37.0 °F 41.0 °F 93% 29.57 in 1.0 mi SSW 10.4 mph - N/A   Overcast